sensor_id;sensor_type;location;lat;lon;timestamp;temperature;humidity
33761;DHT22;20084;47.912;19.044;2022-08-19T08:53:56;29.30;92.20
33761;DHT22;20084;47.912;19.044;2022-08-19T08:56:22;29.20;93.00
33761;DHT22;20084;47.912;19.044;2022-08-19T09:01:17;29.40;91.80
33761;DHT22;20084;47.912;19.044;2022-08-19T09:03:44;29.50;93.00
33761;DHT22;20084;47.912;19.044;2022-08-19T09:06:29;29.80;92.30
33761;DHT22;20084;47.912;19.044;2022-08-19T09:09:17;29.90;90.20
33761;DHT22;20084;47.912;19.044;2022-08-19T09:11:54;30.00;90.70
33761;DHT22;20084;47.912;19.044;2022-08-19T09:17:12;30.10;91.20
33761;DHT22;20084;47.912;19.044;2022-08-19T09:22:15;30.30;90.40
33761;DHT22;20084;47.912;19.044;2022-08-19T09:24:41;30.40;89.60
33761;DHT22;20084;47.912;19.044;2022-08-19T09:27:06;30.60;90.90
33761;DHT22;20084;47.912;19.044;2022-08-19T09:29:32;30.80;90.50
33761;DHT22;20084;47.912;19.044;2022-08-19T09:31:57;30.90;89.30
33761;DHT22;20084;47.912;19.044;2022-08-19T09:34:23;31.00;89.20
33761;DHT22;20084;47.912;19.044;2022-08-19T09:36:49;31.10;88.30
33761;DHT22;20084;47.912;19.044;2022-08-19T09:39:20;31.10;86.30
33761;DHT22;20084;47.912;19.044;2022-08-19T09:41:46;31.20;84.70
33761;DHT22;20084;47.912;19.044;2022-08-19T09:44:13;31.30;81.70
33761;DHT22;20084;47.912;19.044;2022-08-19T09:46:38;31.40;80.90
33761;DHT22;20084;47.912;19.044;2022-08-19T09:49:04;31.50;80.40
33761;DHT22;20084;47.912;19.044;2022-08-19T09:51:32;31.60;80.40
33761;DHT22;20084;47.912;19.044;2022-08-19T09:54:00;31.50;83.50
33761;DHT22;20084;47.912;19.044;2022-08-19T09:56:27;31.60;81.40
33761;DHT22;20084;47.912;19.044;2022-08-19T09:58:53;31.60;76.10
33761;DHT22;20084;47.912;19.044;2022-08-19T10:01:24;31.70;70.60
33761;DHT22;20084;47.912;19.044;2022-08-19T10:03:52;31.70;65.80
33761;DHT22;20084;47.912;19.044;2022-08-19T10:06:20;31.70;70.00
33761;DHT22;20084;47.912;19.044;2022-08-19T10:08:47;31.80;68.90
33761;DHT22;20084;47.912;19.044;2022-08-19T10:11:13;31.90;67.70
33761;DHT22;20084;47.912;19.044;2022-08-19T10:13:42;32.00;67.30
33761;DHT22;20084;47.912;19.044;2022-08-19T10:16:12;32.10;63.70
33761;DHT22;20084;47.912;19.044;2022-08-19T10:18:39;32.00;63.40
33761;DHT22;20084;47.912;19.044;2022-08-19T10:21:16;32.00;63.80
33761;DHT22;20084;47.912;19.044;2022-08-19T10:23:45;32.00;63.30
33761;DHT22;20084;47.912;19.044;2022-08-19T10:26:13;32.00;65.20
33761;DHT22;20084;47.912;19.044;2022-08-19T10:28:40;32.20;62.50
33761;DHT22;20084;47.912;19.044;2022-08-19T10:31:07;32.30;62.50
33761;DHT22;20084;47.912;19.044;2022-08-19T10:33:34;32.30;62.20
33761;DHT22;20084;47.912;19.044;2022-08-19T10:36:07;32.30;61.90
33761;DHT22;20084;47.912;19.044;2022-08-19T10:38:33;32.30;61.60
33761;DHT22;20084;47.912;19.044;2022-08-19T10:41:12;32.30;59.90
33761;DHT22;20084;47.912;19.044;2022-08-19T10:43:39;32.30;60.60
33761;DHT22;20084;47.912;19.044;2022-08-19T10:46:08;32.40;59.60
33761;DHT22;20084;47.912;19.044;2022-08-19T10:48:34;32.50;59.10
33761;DHT22;20084;47.912;19.044;2022-08-19T10:51:01;32.50;59.50
33761;DHT22;20084;47.912;19.044;2022-08-19T10:53:45;32.50;58.50
33761;DHT22;20084;47.912;19.044;2022-08-19T10:56:11;32.50;59.00
33761;DHT22;20084;47.912;19.044;2022-08-19T10:58:56;32.60;59.30
33761;DHT22;20084;47.912;19.044;2022-08-19T11:01:24;32.70;58.80
33761;DHT22;20084;47.912;19.044;2022-08-19T11:03:50;32.70;58.30
33761;DHT22;20084;47.912;19.044;2022-08-19T11:06:15;32.70;59.30
33761;DHT22;20084;47.912;19.044;2022-08-19T11:08:41;32.80;57.70
33761;DHT22;20084;47.912;19.044;2022-08-19T11:11:10;32.80;57.80
33761;DHT22;20084;47.912;19.044;2022-08-19T11:13:38;32.90;57.50
33761;DHT22;20084;47.912;19.044;2022-08-19T11:16:13;32.90;57.20
33761;DHT22;20084;47.912;19.044;2022-08-19T11:18:41;33.00;57.60
33761;DHT22;20084;47.912;19.044;2022-08-19T11:21:17;33.00;57.40
33761;DHT22;20084;47.912;19.044;2022-08-19T11:23:46;33.10;56.60
33761;DHT22;20084;47.912;19.044;2022-08-19T11:26:13;33.20;55.70
33761;DHT22;20084;47.912;19.044;2022-08-19T11:28:40;33.10;55.90
33761;DHT22;20084;47.912;19.044;2022-08-19T11:31:14;33.20;57.50
33761;DHT22;20084;47.912;19.044;2022-08-19T11:33:40;33.30;56.50
33761;DHT22;20084;47.912;19.044;2022-08-19T11:36:07;33.40;56.80
33761;DHT22;20084;47.912;19.044;2022-08-19T11:38:33;33.40;57.40
33761;DHT22;20084;47.912;19.044;2022-08-19T11:41:06;33.50;56.40
33761;DHT22;20084;47.912;19.044;2022-08-19T11:43:33;33.50;55.80
33761;DHT22;20084;47.912;19.044;2022-08-19T11:45:58;33.50;54.80
33761;DHT22;20084;47.912;19.044;2022-08-19T11:48:24;33.50;55.50
33761;DHT22;20084;47.912;19.044;2022-08-19T11:50:51;33.50;55.20
33761;DHT22;20084;47.912;19.044;2022-08-19T11:53:19;33.50;55.20
33761;DHT22;20084;47.912;19.044;2022-08-19T11:55:46;33.50;55.40
33761;DHT22;20084;47.912;19.044;2022-08-19T11:58:13;33.50;54.30
33761;DHT22;20084;47.912;19.044;2022-08-19T12:00:40;33.60;55.10
33761;DHT22;20084;47.912;19.044;2022-08-19T12:03:06;33.60;56.00
33761;DHT22;20084;47.912;19.044;2022-08-19T12:05:32;33.70;54.30
33761;DHT22;20084;47.912;19.044;2022-08-19T12:07:57;33.70;53.40
33761;DHT22;20084;47.912;19.044;2022-08-19T12:10:23;33.70;54.80
33761;DHT22;20084;47.912;19.044;2022-08-19T12:12:49;33.90;55.40
33761;DHT22;20084;47.912;19.044;2022-08-19T12:15:15;34.00;55.20
33761;DHT22;20084;47.912;19.044;2022-08-19T12:17:42;34.00;54.50
33761;DHT22;20084;47.912;19.044;2022-08-19T12:20:09;33.80;54.30
33761;DHT22;20084;47.912;19.044;2022-08-19T12:22:39;33.80;53.50
33761;DHT22;20084;47.912;19.044;2022-08-19T12:25:08;33.80;53.60
33761;DHT22;20084;47.912;19.044;2022-08-19T12:27:35;33.80;54.50
33761;DHT22;20084;47.912;19.044;2022-08-19T12:30:02;33.80;54.60
33761;DHT22;20084;47.912;19.044;2022-08-19T12:32:28;33.90;54.00
33761;DHT22;20084;47.912;19.044;2022-08-19T12:34:54;33.70;53.70
33761;DHT22;20084;47.912;19.044;2022-08-19T12:37:20;33.70;55.90
33761;DHT22;20084;47.912;19.044;2022-08-19T12:39:45;33.80;53.70
33761;DHT22;20084;47.912;19.044;2022-08-19T12:42:13;34.00;53.20
33761;DHT22;20084;47.912;19.044;2022-08-19T12:44:40;34.00;54.10
33761;DHT22;20084;47.912;19.044;2022-08-19T12:47:07;34.10;53.20
33761;DHT22;20084;47.912;19.044;2022-08-19T12:49:33;34.00;52.00
33761;DHT22;20084;47.912;19.044;2022-08-19T12:52:00;33.90;52.20
33761;DHT22;20084;47.912;19.044;2022-08-19T12:54:27;33.80;53.20
33761;DHT22;20084;47.912;19.044;2022-08-19T12:56:52;33.80;53.00
33761;DHT22;20084;47.912;19.044;2022-08-19T12:59:18;33.70;52.60
33761;DHT22;20084;47.912;19.044;2022-08-19T13:01:44;33.60;52.70
33761;DHT22;20084;47.912;19.044;2022-08-19T13:04:10;33.70;53.90
33761;DHT22;20084;47.912;19.044;2022-08-19T13:06:35;33.80;53.40
33761;DHT22;20084;47.912;19.044;2022-08-19T13:09:02;33.80;52.70
33761;DHT22;20084;47.912;19.044;2022-08-19T13:11:28;33.80;52.90
33761;DHT22;20084;47.912;19.044;2022-08-19T13:13:58;33.80;51.90
33761;DHT22;20084;47.912;19.044;2022-08-19T13:16:24;33.90;53.60
33761;DHT22;20084;47.912;19.044;2022-08-19T13:18:50;34.00;52.90
33761;DHT22;20084;47.912;19.044;2022-08-19T13:21:18;34.10;52.20
33761;DHT22;20084;47.912;19.044;2022-08-19T13:23:45;34.20;51.80
33761;DHT22;20084;47.912;19.044;2022-08-19T13:26:11;34.30;53.10
33761;DHT22;20084;47.912;19.044;2022-08-19T13:28:38;34.40;52.50
33761;DHT22;20084;47.912;19.044;2022-08-19T13:31:23;34.30;52.90
33761;DHT22;20084;47.912;19.044;2022-08-19T13:34:08;34.20;53.80
33761;DHT22;20084;47.912;19.044;2022-08-19T13:36:34;34.20;52.10
33761;DHT22;20084;47.912;19.044;2022-08-19T13:39:00;34.20;51.40
33761;DHT22;20084;47.912;19.044;2022-08-19T13:41:26;34.20;54.00
33761;DHT22;20084;47.912;19.044;2022-08-19T13:43:52;34.30;54.40
33761;DHT22;20084;47.912;19.044;2022-08-19T13:46:18;34.50;52.60
33761;DHT22;20084;47.912;19.044;2022-08-19T13:48:46;34.50;50.70
33761;DHT22;20084;47.912;19.044;2022-08-19T13:51:12;34.40;49.70
33761;DHT22;20084;47.912;19.044;2022-08-19T13:53:38;34.30;49.80
33761;DHT22;20084;47.912;19.044;2022-08-19T13:56:10;34.20;49.60
33761;DHT22;20084;47.912;19.044;2022-08-19T13:58:37;34.10;50.90
33761;DHT22;20084;47.912;19.044;2022-08-19T14:01:05;34.00;50.70
33761;DHT22;20084;47.912;19.044;2022-08-19T14:03:32;33.90;50.00
33761;DHT22;20084;47.912;19.044;2022-08-19T14:05:59;33.80;50.40
33761;DHT22;20084;47.912;19.044;2022-08-19T14:08:25;33.80;50.60
33761;DHT22;20084;47.912;19.044;2022-08-19T14:10:56;33.70;50.40
33761;DHT22;20084;47.912;19.044;2022-08-19T14:13:25;33.60;61.60
33761;DHT22;20084;47.912;19.044;2022-08-19T14:15:51;32.70;67.00
33761;DHT22;20084;47.912;19.044;2022-08-19T14:18:17;32.00;71.10
33761;DHT22;20084;47.912;19.044;2022-08-19T14:20:44;31.40;74.00
33761;DHT22;20084;47.912;19.044;2022-08-19T14:23:10;31.10;74.40
33761;DHT22;20084;47.912;19.044;2022-08-19T14:25:37;30.80;74.70
33761;DHT22;20084;47.912;19.044;2022-08-19T14:28:03;30.60;74.30
33761;DHT22;20084;47.912;19.044;2022-08-19T14:30:31;30.40;75.20
33761;DHT22;20084;47.912;19.044;2022-08-19T14:32:59;30.30;77.20
33761;DHT22;20084;47.912;19.044;2022-08-19T14:35:27;30.10;77.20
33761;DHT22;20084;47.912;19.044;2022-08-19T14:37:54;30.00;79.10
33761;DHT22;20084;47.912;19.044;2022-08-19T14:40:22;29.80;78.80
33761;DHT22;20084;47.912;19.044;2022-08-19T14:42:52;29.60;79.60
33761;DHT22;20084;47.912;19.044;2022-08-19T14:45:17;29.50;79.10
33761;DHT22;20084;47.912;19.044;2022-08-19T14:47:43;29.40;79.60
33761;DHT22;20084;47.912;19.044;2022-08-19T14:50:11;29.30;78.90
33761;DHT22;20084;47.912;19.044;2022-08-19T14:52:36;29.20;79.00
33761;DHT22;20084;47.912;19.044;2022-08-19T14:55:04;29.30;78.50
33761;DHT22;20084;47.912;19.044;2022-08-19T14:57:30;29.20;79.00
33761;DHT22;20084;47.912;19.044;2022-08-19T14:59:55;29.30;78.70
33761;DHT22;20084;47.912;19.044;2022-08-19T15:02:22;29.30;77.80
33761;DHT22;20084;47.912;19.044;2022-08-19T15:04:48;29.40;77.40
33761;DHT22;20084;47.912;19.044;2022-08-19T15:07:14;29.50;79.30
33761;DHT22;20084;47.912;19.044;2022-08-19T15:09:39;29.60;80.10
33761;DHT22;20084;47.912;19.044;2022-08-19T15:12:06;29.60;79.00
33761;DHT22;20084;47.912;19.044;2022-08-19T15:14:32;29.70;77.10
33761;DHT22;20084;47.912;19.044;2022-08-19T15:17:01;29.60;75.60
33761;DHT22;20084;47.912;19.044;2022-08-19T15:19:28;29.60;74.70
33761;DHT22;20084;47.912;19.044;2022-08-19T15:21:54;29.60;75.10
33761;DHT22;20084;47.912;19.044;2022-08-19T15:24:20;29.60;75.60
33761;DHT22;20084;47.912;19.044;2022-08-19T15:26:46;29.50;74.60
33761;DHT22;20084;47.912;19.044;2022-08-19T15:29:11;29.40;74.80
33761;DHT22;20084;47.912;19.044;2022-08-19T15:31:42;29.40;75.80
33761;DHT22;20084;47.912;19.044;2022-08-19T15:34:08;29.40;74.40
33761;DHT22;20084;47.912;19.044;2022-08-19T15:36:34;29.40;73.90
33761;DHT22;20084;47.912;19.044;2022-08-19T15:39:00;29.40;73.80
33761;DHT22;20084;47.912;19.044;2022-08-19T15:41:29;29.40;72.70
33761;DHT22;20084;47.912;19.044;2022-08-19T15:44:21;29.40;71.20
33761;DHT22;20084;47.912;19.044;2022-08-19T15:46:47;29.40;71.60
33761;DHT22;20084;47.912;19.044;2022-08-19T15:49:15;29.40;71.60
33761;DHT22;20084;47.912;19.044;2022-08-19T15:51:44;29.40;71.30
33761;DHT22;20084;47.912;19.044;2022-08-19T15:54:13;29.40;70.10
33761;DHT22;20084;47.912;19.044;2022-08-19T15:56:39;29.40;70.60
33761;DHT22;20084;47.912;19.044;2022-08-19T15:59:25;29.40;71.20
33761;DHT22;20084;47.912;19.044;2022-08-19T16:02:09;29.30;70.40
